createdAt,value
2022-08-22T00:00:13.356Z,7.80
2022-08-22T00:06:17.203Z,5.88
2022-08-22T00:09:09.223Z,7.82
2022-08-22T00:12:16.156Z,10.73
2022-08-22T00:15:09.188Z,5.22
2022-08-22T00:18:20.196Z,4.07
2022-08-22T00:21:19.194Z,6.80
2022-08-22T00:24:07.195Z,4.35
2022-08-22T00:27:16.162Z,9.90
2022-08-22T00:30:20.200Z,6.88
2022-08-22T00:33:01.251Z,6.63
2022-08-22T00:35:55.203Z,7.18
2022-08-22T00:38:39.272Z,9.45
2022-08-22T00:42:04.211Z,4.55
2022-08-22T00:44:37.276Z,6.22
2022-08-22T00:47:50.210Z,6.72
2022-08-22T00:50:55.596Z,6.30
2022-08-22T00:54:16.777Z,4.85
2022-08-22T00:57:12.220Z,8.30
2022-08-22T01:00:02.214Z,4.05
2022-08-22T01:03:10.236Z,9.70
2022-08-22T01:06:19.182Z,7.07
2022-08-22T01:09:32.209Z,6.65
2022-08-22T01:12:13.822Z,6.13
2022-08-22T01:14:59.204Z,5.57
2022-08-22T01:17:51.287Z,9.32
2022-08-22T01:20:50.223Z,6.50
2022-08-22T01:24:16.214Z,6.07
2022-08-22T01:27:28.217Z,5.97
2022-08-22T01:30:14.387Z,7.18
2022-08-22T01:33:36.254Z,6.25
2022-08-22T01:36:55.210Z,9.88
2022-08-22T01:39:46.890Z,7.07
2022-08-22T01:43:12.207Z,7.78
2022-08-22T01:46:06.696Z,7.35
2022-08-22T01:49:10.264Z,7.70
2022-08-22T01:52:01.747Z,6.55
2022-08-22T01:55:24.243Z,7.53
2022-08-22T01:58:06.239Z,8.30
2022-08-22T02:01:24.365Z,8.90
2022-08-22T02:04:28.249Z,9.57
2022-08-22T02:07:11.280Z,7.20
2022-08-22T02:09:55.255Z,7.60
2022-08-22T02:12:55.243Z,10.15
2022-08-22T02:15:41.000Z,8.03
2022-08-22T02:18:42.254Z,6.00
2022-08-22T02:21:29.430Z,5.65
2022-08-22T02:24:32.233Z,8.05
2022-08-22T02:27:37.246Z,9.95
2022-08-22T02:30:35.295Z,7.07
2022-08-22T02:33:24.492Z,7.05
2022-08-22T02:36:28.247Z,7.85
2022-08-22T02:39:15.262Z,4.40
2022-08-22T02:42:12.258Z,8.07
2022-08-22T02:45:08.244Z,8.25
2022-08-22T02:48:12.318Z,7.83
2022-08-22T02:51:08.271Z,8.63
2022-08-22T02:53:54.427Z,7.75
2022-08-22T02:56:39.236Z,5.50
2022-08-22T02:59:19.320Z,6.70
2022-08-22T03:04:39.340Z,9.55
2022-08-22T03:10:38.127Z,8.20
2022-08-22T03:13:31.264Z,7.05
2022-08-22T03:16:24.270Z,6.28
2022-08-22T03:19:23.259Z,4.22
2022-08-22T03:22:25.258Z,9.80
2022-08-22T03:25:26.278Z,12.35
2022-08-22T03:28:21.241Z,6.13
2022-08-22T03:31:36.267Z,7.55
2022-08-22T03:34:39.258Z,8.50
2022-08-22T03:37:42.290Z,5.90
2022-08-22T03:40:41.874Z,7.68
2022-08-22T03:43:54.279Z,6.20
2022-08-22T03:47:26.274Z,4.78
2022-08-22T03:50:21.296Z,8.55
2022-08-22T03:53:32.289Z,4.10
2022-08-22T03:57:01.281Z,7.03
2022-08-22T03:59:44.359Z,5.28
2022-08-22T04:02:43.159Z,5.63
2022-08-22T04:05:55.386Z,4.72
2022-08-22T04:08:52.264Z,5.35
2022-08-22T04:11:46.182Z,6.55
2022-08-22T04:15:10.290Z,7.95
2022-08-22T04:18:08.443Z,7.30
2022-08-22T04:21:22.729Z,5.80
2022-08-22T04:24:52.569Z,6.85
2022-08-22T04:27:32.023Z,5.63
2022-08-22T04:30:42.288Z,12.93
2022-08-22T04:33:37.309Z,5.00
2022-08-22T04:36:41.284Z,6.55
2022-08-22T04:39:48.327Z,6.68
2022-08-22T04:42:32.668Z,6.82
2022-08-22T04:45:50.306Z,4.90
2022-08-22T04:48:42.315Z,13.55
2022-08-22T04:51:32.330Z,17.77
2022-08-22T04:54:31.322Z,4.78
2022-08-22T04:57:35.319Z,9.70
2022-08-22T05:00:23.293Z,7.95
2022-08-22T05:03:03.397Z,7.97
2022-08-22T05:05:53.292Z,8.32
2022-08-22T05:08:32.442Z,5.93
2022-08-22T05:11:23.337Z,6.03
2022-08-22T05:14:18.320Z,6.13
2022-08-22T05:17:15.586Z,8.52
2022-08-22T05:20:05.310Z,8.18
2022-08-22T05:22:54.406Z,8.20
2022-08-22T05:25:39.321Z,7.57
2022-08-22T05:28:29.511Z,8.88
2022-08-22T05:31:16.314Z,10.23
2022-08-22T05:34:03.771Z,10.25
2022-08-22T05:37:11.327Z,18.25
2022-08-22T05:39:55.413Z,16.60
2022-08-22T05:42:40.315Z,10.88
2022-08-22T05:45:28.316Z,8.38
2022-08-22T05:48:22.346Z,8.85
2022-08-22T05:51:10.394Z,6.32
2022-08-22T05:53:55.341Z,11.82
2022-08-22T05:57:07.936Z,9.07
2022-08-22T05:59:46.317Z,11.73
2022-08-22T06:02:34.346Z,7.75
2022-08-22T06:05:12.029Z,8.55
2022-08-22T06:08:03.340Z,8.70
2022-08-22T06:10:51.035Z,7.47
2022-08-22T06:13:49.345Z,9.07
2022-08-22T06:16:56.891Z,12.73
2022-08-22T06:19:46.328Z,6.60
2022-08-22T06:22:36.371Z,7.50
2022-08-22T06:25:29.479Z,8.38
2022-08-22T06:28:20.355Z,8.98
2022-08-22T06:31:04.196Z,8.82
2022-08-22T06:33:46.349Z,5.43
2022-08-22T06:36:39.342Z,6.15
2022-08-22T06:39:55.428Z,5.68
2022-08-22T06:42:45.364Z,8.30
2022-08-22T06:45:27.824Z,11.95
2022-08-22T06:48:20.351Z,7.07
2022-08-22T06:50:58.595Z,9.95
2022-08-22T06:54:02.382Z,13.15
2022-08-22T06:56:47.349Z,7.40
2022-08-22T06:59:33.428Z,8.32
2022-08-22T07:02:39.412Z,9.05
2022-08-22T07:05:29.509Z,7.53
2022-08-22T07:11:30.382Z,8.52
2022-08-22T07:14:14.365Z,12.45
2022-08-22T07:17:12.357Z,13.30
2022-08-22T07:19:55.408Z,7.05
2022-08-22T07:22:46.375Z,9.93
2022-08-22T07:25:27.385Z,6.45
2022-08-22T07:28:15.934Z,5.60
2022-08-22T07:31:06.397Z,6.65
2022-08-22T07:34:04.394Z,9.95
2022-08-22T07:37:01.381Z,9.07
2022-08-22T07:39:42.452Z,6.90
2022-08-22T07:42:30.457Z,7.50
2022-08-22T07:45:24.383Z,11.43
2022-08-22T07:48:25.032Z,7.47
2022-08-22T07:51:48.395Z,7.95
2022-08-22T07:54:42.973Z,13.20
2022-08-22T07:57:30.397Z,9.90
2022-08-22T08:00:17.061Z,10.48
2022-08-22T08:03:09.358Z,9.65
2022-08-22T08:06:04.371Z,8.80
2022-08-22T08:08:52.402Z,9.45
2022-08-22T08:11:30.462Z,11.93
2022-08-22T08:14:21.402Z,10.15
2022-08-22T08:17:10.398Z,7.80
2022-08-22T08:20:05.402Z,7.43
2022-08-22T08:22:54.414Z,8.35
2022-08-22T08:25:37.470Z,10.02
2022-08-22T08:28:43.394Z,8.57
2022-08-22T08:31:17.455Z,7.50
2022-08-22T08:34:09.395Z,5.55
2022-08-22T08:36:53.508Z,8.55
2022-08-22T08:39:58.455Z,7.80
2022-08-22T08:43:26.414Z,16.90
2022-08-22T08:49:09.413Z,9.35
2022-08-22T08:52:37.433Z,6.72
2022-08-22T08:55:46.395Z,5.97
2022-08-22T08:58:28.419Z,5.57
2022-08-22T09:01:44.531Z,6.70
2022-08-22T09:04:46.441Z,5.13
2022-08-22T09:07:20.480Z,5.97
2022-08-22T09:10:16.455Z,7.18
2022-08-22T09:13:11.343Z,6.25
2022-08-22T09:16:27.424Z,6.82
2022-08-22T09:19:13.505Z,9.73
2022-08-22T09:22:50.039Z,6.65
2022-08-22T09:25:56.414Z,5.72
2022-08-22T09:29:01.434Z,6.78
2022-08-22T09:31:48.391Z,4.25
2022-08-22T09:34:44.424Z,4.40
2022-08-22T09:37:37.503Z,6.18
2022-08-22T09:40:32.439Z,6.97
2022-08-22T09:43:13.754Z,6.97
2022-08-22T09:46:36.776Z,7.80
2022-08-22T09:49:26.425Z,5.43
2022-08-22T09:52:15.183Z,5.57
2022-08-22T09:55:08.004Z,8.55
2022-08-22T09:58:03.604Z,3.53
2022-08-22T10:01:04.546Z,4.13
2022-08-22T10:04:05.864Z,7.07
2022-08-22T10:07:15.453Z,5.53
2022-08-22T10:10:36.453Z,3.80
2022-08-22T10:13:44.463Z,5.15
2022-08-22T10:16:52.456Z,5.32
2022-08-22T10:19:54.517Z,7.15
2022-08-22T10:23:05.443Z,12.00
2022-08-22T10:26:07.430Z,5.45
2022-08-22T10:29:13.445Z,8.63
2022-08-22T10:32:07.698Z,8.10
2022-08-22T10:35:16.481Z,4.53
2022-08-22T10:37:59.538Z,4.28
2022-08-22T10:41:26.463Z,4.75
2022-08-22T10:44:19.594Z,5.70
2022-08-22T10:47:09.476Z,6.90
2022-08-22T10:50:08.575Z,5.00
2022-08-22T10:53:29.559Z,13.52
2022-08-22T10:56:47.435Z,3.47
2022-08-22T10:59:29.159Z,6.80
2022-08-22T11:02:28.469Z,7.03
2022-08-22T11:05:20.432Z,4.68
2022-08-22T11:08:28.738Z,7.78
2022-08-22T11:11:25.456Z,6.07
2022-08-22T11:14:07.610Z,5.10
2022-08-22T11:17:34.654Z,3.22
2022-08-22T11:20:54.496Z,3.27
2022-08-22T11:23:51.481Z,7.57
2022-08-22T11:26:51.464Z,6.90
2022-08-22T11:29:37.477Z,8.73
2022-08-22T11:32:28.472Z,5.60
2022-08-22T11:35:30.484Z,6.68
2022-08-22T11:38:33.502Z,4.43
2022-08-22T11:41:28.506Z,10.18
2022-08-22T11:44:36.834Z,5.32
2022-08-22T11:47:36.568Z,7.85
2022-08-22T11:50:42.214Z,4.78
2022-08-22T11:53:47.503Z,5.85
2022-08-22T11:56:41.761Z,3.90
2022-08-22T11:59:40.518Z,4.95
2022-08-22T12:02:32.500Z,4.63
2022-08-22T12:05:29.482Z,3.83
2022-08-22T12:08:12.488Z,3.75
2022-08-22T12:11:04.609Z,7.00
2022-08-22T12:14:05.936Z,6.43
2022-08-22T12:17:09.528Z,5.60
2022-08-22T12:20:20.390Z,2.80
2022-08-22T12:23:43.318Z,4.53
2022-08-22T12:26:43.596Z,4.68
2022-08-22T12:29:34.128Z,4.60
2022-08-22T12:33:03.524Z,5.63
2022-08-22T12:36:03.499Z,3.22
2022-08-22T12:39:03.644Z,3.95
2022-08-22T12:42:12.519Z,3.58
2022-08-22T12:45:07.615Z,4.88
2022-08-22T12:48:09.498Z,4.65
2022-08-22T12:51:03.544Z,4.38
2022-08-22T12:54:37.498Z,4.78
2022-08-22T12:57:50.447Z,3.42
2022-08-22T13:00:58.526Z,4.65
2022-08-22T13:04:06.526Z,5.20
2022-08-22T13:06:58.509Z,4.35
2022-08-22T13:09:39.639Z,4.88
2022-08-22T13:12:40.070Z,5.70
2022-08-22T13:15:45.556Z,3.10
2022-08-22T13:18:59.527Z,2.63
2022-08-22T13:21:52.512Z,2.58
2022-08-22T13:24:39.418Z,3.33
2022-08-22T13:27:50.757Z,5.20
2022-08-22T13:30:39.593Z,3.08
2022-08-22T13:33:41.517Z,3.28
2022-08-22T13:36:30.547Z,4.30
2022-08-22T13:39:20.602Z,6.25
2022-08-22T13:42:14.599Z,3.10
2022-08-22T13:45:11.554Z,4.43
2022-08-22T13:48:12.530Z,9.75
2022-08-22T13:51:22.532Z,3.70
2022-08-22T13:54:24.881Z,3.85
2022-08-22T13:57:27.574Z,5.63
2022-08-22T14:00:12.440Z,5.60
2022-08-22T14:03:24.547Z,4.45
2022-08-22T14:06:32.590Z,5.43
2022-08-22T14:09:05.572Z,7.18
2022-08-22T14:12:00.612Z,5.20
2022-08-22T14:17:35.992Z,3.05
2022-08-22T14:20:35.522Z,5.22
2022-08-22T14:23:38.558Z,7.28
2022-08-22T14:26:47.904Z,5.90
2022-08-22T14:29:31.960Z,3.17
2022-08-22T14:32:30.875Z,2.40
2022-08-22T14:35:35.175Z,2.85
2022-08-22T14:38:29.898Z,6.85
2022-08-22T14:41:56.285Z,8.85
2022-08-22T14:44:43.556Z,3.10
2022-08-22T14:48:29.903Z,2.65
2022-08-22T14:50:52.981Z,7.90
2022-08-22T14:53:48.598Z,2.47
2022-08-22T14:56:29.708Z,6.00
2022-08-22T14:59:22.543Z,4.93
2022-08-22T15:02:19.610Z,3.05
2022-08-22T15:05:05.593Z,5.35
2022-08-22T15:07:46.595Z,3.55
2022-08-22T15:10:31.777Z,9.88
2022-08-22T15:13:15.586Z,4.55
2022-08-22T15:16:05.713Z,4.72
2022-08-22T15:18:52.197Z,4.13
2022-08-22T15:21:45.588Z,2.58
2022-08-22T15:24:27.593Z,4.20
2022-08-22T15:27:09.670Z,5.03
2022-08-22T15:29:57.625Z,3.40
2022-08-22T15:32:55.652Z,2.67
2022-08-22T15:35:49.574Z,4.03
2022-08-22T15:38:38.592Z,2.10
2022-08-22T15:41:36.531Z,3.75
2022-08-22T15:44:32.514Z,2.70
2022-08-22T15:47:23.758Z,3.15
2022-08-22T15:50:33.591Z,3.92
2022-08-22T15:54:01.566Z,3.60
2022-08-22T15:57:17.608Z,2.67
2022-08-22T16:00:01.737Z,3.97
2022-08-22T16:03:07.584Z,3.83
2022-08-22T16:05:58.618Z,4.40
2022-08-22T16:08:34.669Z,2.63
2022-08-22T16:14:39.672Z,5.75
2022-08-22T16:17:35.592Z,3.33
2022-08-22T16:20:19.605Z,5.68
2022-08-22T16:23:06.612Z,3.97
2022-08-22T16:25:59.616Z,4.30
2022-08-22T16:29:03.603Z,3.58
2022-08-22T16:31:52.608Z,3.95
2022-08-22T16:34:49.593Z,3.58
2022-08-22T16:37:51.616Z,3.22
2022-08-22T16:40:37.632Z,2.65
2022-08-22T16:43:33.608Z,4.60
2022-08-22T16:46:36.762Z,1.80
2022-08-22T16:49:10.720Z,4.05
2022-08-22T16:52:33.339Z,4.05
2022-08-22T16:55:10.671Z,2.70
2022-08-22T16:58:12.725Z,3.28
2022-08-22T17:01:18.659Z,4.90
2022-08-22T17:04:12.640Z,4.07
2022-08-22T17:07:20.617Z,4.07
2022-08-22T17:10:01.622Z,2.83
2022-08-22T17:13:15.643Z,3.55
2022-08-22T17:16:19.632Z,3.03
2022-08-22T17:19:32.631Z,4.20
2022-08-22T17:22:56.616Z,8.07
2022-08-22T17:26:05.719Z,5.50
2022-08-22T17:29:12.630Z,16.10
2022-08-22T17:32:03.639Z,8.57
2022-08-22T17:35:25.625Z,17.65
2022-08-22T17:38:33.650Z,18.38
2022-08-22T17:41:32.618Z,9.55
2022-08-22T17:44:41.664Z,19.65
2022-08-22T17:47:19.758Z,51.92
2022-08-22T17:50:11.671Z,60.65
2022-08-22T17:53:16.458Z,24.67
2022-08-22T17:56:19.660Z,81.55
2022-08-22T17:59:20.332Z,77.32
2022-08-22T18:01:59.814Z,57.88
2022-08-22T18:04:52.649Z,39.42
2022-08-22T18:07:40.897Z,55.20
2022-08-22T18:10:39.677Z,115.97
2022-08-22T18:13:34.737Z,127.90
2022-08-22T18:16:53.691Z,102.47
2022-08-22T18:19:36.664Z,73.30
2022-08-22T18:22:56.730Z,49.17
2022-08-22T18:25:51.737Z,48.20
2022-08-22T18:28:35.694Z,59.30
2022-08-22T18:31:38.154Z,57.80
2022-08-22T18:34:48.708Z,13.02
2022-08-22T18:37:32.898Z,8.90
2022-08-22T18:40:33.649Z,38.15
2022-08-22T18:43:25.949Z,21.25
2022-08-22T18:46:07.666Z,16.30
2022-08-22T18:49:14.530Z,17.73
2022-08-22T18:52:15.678Z,6.18
2022-08-22T18:55:15.237Z,5.68
2022-08-22T18:58:24.670Z,8.20
2022-08-22T19:01:31.097Z,9.65
2022-08-22T19:04:46.718Z,9.02
2022-08-22T19:07:45.713Z,11.50
2022-08-22T19:10:27.673Z,5.38
2022-08-22T19:13:29.674Z,7.18
2022-08-22T19:16:41.703Z,8.55
2022-08-22T19:20:03.709Z,5.15
2022-08-22T19:22:40.757Z,5.28
2022-08-22T19:25:33.716Z,5.70
2022-08-22T19:28:12.789Z,6.95
2022-08-22T19:31:38.705Z,6.47
2022-08-22T19:34:47.005Z,5.32
2022-08-22T19:37:42.690Z,8.45
2022-08-22T19:40:51.719Z,17.27
2022-08-22T19:43:48.710Z,12.45
2022-08-22T19:46:45.714Z,13.15
2022-08-22T19:49:49.705Z,6.30
2022-08-22T19:53:13.706Z,5.47
2022-08-22T19:56:19.730Z,5.50
2022-08-22T19:59:46.786Z,7.28
2022-08-22T20:02:35.208Z,8.63
2022-08-22T20:05:41.693Z,11.73
2022-08-22T20:09:12.738Z,6.20
2022-08-22T20:12:20.724Z,6.50
2022-08-22T20:15:31.714Z,4.85
2022-08-22T20:21:12.797Z,4.28
2022-08-22T20:23:59.712Z,3.42
2022-08-22T20:26:33.810Z,5.72
2022-08-22T20:29:22.941Z,2.97
2022-08-22T20:32:04.755Z,2.97
2022-08-22T20:34:52.707Z,2.58
2022-08-22T20:38:05.246Z,4.03
2022-08-22T20:40:55.938Z,3.28
2022-08-22T20:44:12.385Z,3.92
2022-08-22T20:46:53.583Z,3.33
2022-08-22T20:50:14.779Z,8.05
2022-08-22T20:52:54.743Z,6.65
2022-08-22T20:55:34.831Z,6.88
2022-08-22T20:58:32.758Z,11.15
2022-08-22T21:01:19.400Z,7.43
2022-08-22T21:04:00.734Z,7.68
2022-08-22T21:06:39.144Z,4.10
2022-08-22T21:09:52.726Z,5.45
2022-08-22T21:12:27.761Z,3.60
2022-08-22T21:15:14.745Z,5.75
2022-08-22T21:17:56.727Z,2.15
2022-08-22T21:20:48.746Z,5.82
2022-08-22T21:23:28.736Z,6.03
2022-08-22T21:26:23.743Z,4.40
2022-08-22T21:29:04.572Z,5.65
2022-08-22T21:32:04.575Z,6.00
2022-08-22T21:35:00.751Z,7.65
2022-08-22T21:37:52.761Z,8.27
2022-08-22T21:40:33.768Z,10.43
2022-08-22T21:43:37.778Z,7.40
2022-08-22T21:46:12.809Z,5.70
2022-08-22T21:49:10.737Z,7.80
2022-08-22T21:51:52.860Z,4.30
2022-08-22T21:54:48.759Z,3.67
2022-08-22T21:57:25.822Z,6.00
2022-08-22T22:00:48.823Z,3.80
2022-08-22T22:03:34.760Z,5.10
2022-08-22T22:06:28.748Z,6.40
2022-08-22T22:09:16.765Z,7.50
2022-08-22T22:11:57.770Z,3.38
2022-08-22T22:14:58.738Z,6.13
2022-08-22T22:17:45.794Z,6.38
2022-08-22T22:20:20.824Z,7.68
2022-08-22T22:23:07.772Z,5.60
2022-08-22T22:25:42.909Z,10.27
2022-08-22T22:28:36.770Z,4.75
2022-08-22T22:31:17.798Z,5.20
2022-08-22T22:34:11.781Z,4.93
2022-08-22T22:39:52.823Z,5.93
2022-08-22T22:42:27.207Z,5.38
2022-08-22T22:45:14.774Z,2.72
2022-08-22T22:47:48.846Z,4.22
2022-08-22T22:50:35.786Z,3.05
2022-08-22T22:53:11.981Z,5.13
2022-08-22T22:56:06.819Z,3.90
2022-08-22T22:59:00.912Z,6.50
2022-08-22T23:02:27.842Z,5.43
2022-08-22T23:05:08.903Z,6.88
2022-08-22T23:07:49.808Z,8.00
2022-08-22T23:10:40.090Z,8.35
2022-08-22T23:13:19.782Z,6.93
2022-08-22T23:16:07.846Z,4.57
2022-08-22T23:18:54.795Z,8.13
2022-08-22T23:21:41.821Z,8.05
2022-08-22T23:24:37.789Z,2.88
2022-08-22T23:27:24.800Z,7.30
2022-08-22T23:29:58.887Z,3.38
2022-08-22T23:32:45.803Z,4.93
2022-08-22T23:35:26.823Z,9.25
2022-08-22T23:38:13.820Z,5.22
2022-08-22T23:40:49.880Z,4.93
2022-08-22T23:43:36.816Z,8.35
2022-08-22T23:46:10.902Z,6.30
2022-08-22T23:48:57.828Z,2.95
2022-08-22T23:51:40.820Z,6.28
2022-08-22T23:54:22.514Z,5.13
2022-08-22T23:57:12.869Z,7.18
2022-08-22T23:59:57.437Z,5.55
